Time;durP1;ratioP1;P1;durP2;ratioP2;P2;SDS_P1;SDS_P2;PMS_P1;PMS_P2;Temp;Humidity;BMP_temperature;BMP_pressure;BME280_temperature;BME280_humidity;BME280_pressure;Samples;Min_cycle;Max_cycle;Signal;HPM_P1;HPM_P2
2022/06/08 00:00:58;;;;;;;4.38;3.97;;;11.30;99.90;;;;;;5058458;28;20082;-46
2022/06/08 00:03:28;;;;;;;5.55;4.53;;;11.20;99.90;;;;;;5062709;28;20081;-50
2022/06/08 00:05:54;;;;;;;7.03;4.57;;;11.20;99.90;;;;;;5057383;28;20021;-51
2022/06/08 00:08:20;;;;;;;3.97;3.58;;;11.20;99.90;;;;;;5063391;28;20103;-48
2022/06/08 00:10:45;;;;;;;7.72;5.13;;;11.20;99.90;;;;;;5080207;28;20082;-49
2022/06/08 00:13:12;;;;;;;4.60;4.10;;;11.10;99.90;;;;;;5080610;28;20028;-49
2022/06/08 00:15:39;;;;;;;6.28;4.25;;;11.10;99.90;;;;;;5082069;28;20027;-51
2022/06/08 00:18:06;;;;;;;7.05;4.50;;;11.10;99.90;;;;;;5080180;28;20031;-48
2022/06/08 00:20:33;;;;;;;6.28;4.72;;;11.00;99.90;;;;;;5080966;28;20464;-47
2022/06/08 00:22:58;;;;;;;6.57;4.70;;;11.10;99.90;;;;;;5076730;28;20095;-48
2022/06/08 00:25:24;;;;;;;6.97;4.57;;;11.00;99.90;;;;;;5081093;28;20458;-47
2022/06/08 00:27:50;;;;;;;5.10;4.70;;;11.00;99.90;;;;;;5075781;28;20469;-47
2022/06/08 00:30:17;;;;;;;4.10;3.70;;;10.90;99.90;;;;;;5078930;28;20034;-49
2022/06/08 00:32:42;;;;;;;5.75;4.38;;;10.90;99.90;;;;;;5080760;28;20054;-47
2022/06/08 00:35:09;;;;;;;7.60;4.90;;;10.90;99.90;;;;;;5083250;28;20028;-51
2022/06/08 00:37:35;;;;;;;6.07;4.80;;;10.90;99.90;;;;;;5084303;28;20052;-51
2022/06/08 00:40:00;;;;;;;7.80;4.65;;;10.80;99.90;;;;;;5083868;28;20051;-49
2022/06/08 00:42:26;;;;;;;4.63;4.15;;;10.80;99.90;;;;;;5084568;28;20023;-48
2022/06/08 00:45:15;;;;;;;4.43;4.10;;;10.80;99.90;;;;;;5083902;28;20032;-50
2022/06/08 00:47:46;;;;;;;4.45;4.03;;;10.80;99.90;;;;;;5068207;28;20076;-51
2022/06/08 00:50:28;;;;;;;7.55;4.07;;;10.70;99.90;;;;;;5063552;28;20017;-47
2022/06/08 00:52:55;;;;;;;5.80;4.13;;;10.70;99.90;;;;;;5070474;28;20031;-51
2022/06/08 00:55:25;;;;;;;7.40;4.47;;;10.70;99.90;;;;;;5063157;28;20021;-49
2022/06/08 00:57:58;;;;;;;7.05;4.82;;;10.70;99.90;;;;;;5070273;28;20031;-48
2022/06/08 01:00:27;;;;;;;6.78;4.90;;;10.60;99.90;;;;;;5078956;28;20097;-52
2022/06/08 01:02:53;;;;;;;6.60;3.95;;;10.60;99.90;;;;;;5078950;28;20020;-47
2022/06/08 01:05:29;;;;;;;4.70;4.30;;;10.60;99.90;;;;;;5085697;28;20105;-48
2022/06/08 01:08:05;;;;;;;7.60;4.47;;;10.60;99.90;;;;;;5081890;28;20078;-47
2022/06/08 01:10:41;;;;;;;6.47;4.07;;;10.60;99.90;;;;;;5085450;28;20016;-47
2022/06/08 01:13:07;;;;;;;4.78;4.00;;;10.50;99.90;;;;;;5083071;28;20043;-52
2022/06/08 01:15:37;;;;;;;4.70;4.30;;;10.50;99.90;;;;;;5085526;28;20390;-47
2022/06/08 01:18:03;;;;;;;5.97;4.68;;;10.50;99.90;;;;;;5082865;28;20411;-47
2022/06/08 01:20:32;;;;;;;7.35;4.32;;;10.40;99.90;;;;;;5083809;28;20024;-49
2022/06/08 01:22:59;;;;;;;4.90;4.50;;;10.40;99.90;;;;;;5079420;28;20032;-49
2022/06/08 01:25:29;;;;;;;4.13;3.83;;;10.40;99.90;;;;;;5065950;28;20020;-50
2022/06/08 01:28:33;;;;;;;5.57;4.18;;;10.30;99.90;;;;;;5078769;28;20020;-47
2022/06/08 01:31:04;;;;;;;5.70;3.78;;;10.30;99.90;;;;;;5086791;28;20032;-47
2022/06/08 01:33:56;;;;;;;5.10;4.60;;;10.30;99.90;;;;;;5080229;28;20051;-48
2022/06/08 01:37:00;;;;;;;7.13;4.43;;;10.20;99.90;;;;;;5060820;28;20554;-47
2022/06/08 01:39:37;;;;;;;6.38;4.55;;;10.20;99.90;;;;;;5051814;28;20036;-48
2022/06/08 01:42:42;;;;;;;5.70;4.00;;;10.20;99.90;;;;;;5082115;28;20090;-47
2022/06/08 01:45:29;;;;;;;6.05;4.13;;;10.20;99.90;;;;;;5041352;28;20101;-48
2022/06/08 01:48:26;;;;;;;4.03;3.72;;;10.20;99.90;;;;;;5086318;28;20106;-46
2022/06/08 01:51:14;;;;;;;9.02;4.68;;;10.10;99.90;;;;;;5059749;28;20034;-46
2022/06/08 01:53:51;;;;;;;4.80;4.28;;;10.10;99.90;;;;;;5083339;28;20032;-47
2022/06/08 01:56:25;;;;;;;6.57;4.45;;;10.10;99.90;;;;;;5051814;28;20023;-46
2022/06/08 01:59:01;;;;;;;4.55;4.10;;;10.00;99.90;;;;;;5082778;28;20091;-48
2022/06/08 02:01:39;;;;;;;5.78;4.43;;;10.00;99.90;;;;;;5086161;28;20050;-47
2022/06/08 02:04:33;;;;;;;6.10;4.05;;;10.00;99.90;;;;;;5062863;28;20066;-45
2022/06/08 02:07:07;;;;;;;5.65;3.80;;;10.00;99.90;;;;;;5082346;28;20490;-48
2022/06/08 02:09:41;;;;;;;5.25;4.68;;;9.90;99.90;;;;;;5084856;28;20027;-46
2022/06/08 02:12:11;;;;;;;5.35;3.92;;;9.90;99.90;;;;;;5080501;28;20115;-46
2022/06/08 02:14:47;;;;;;;4.43;4.03;;;9.90;99.90;;;;;;5067396;28;20074;-47
2022/06/08 02:17:32;;;;;;;6.13;4.65;;;9.90;99.90;;;;;;5079761;28;20020;-46
2022/06/08 02:20:13;;;;;;;9.25;4.97;;;9.80;99.90;;;;;;5079209;28;20021;-51
2022/06/08 02:22:47;;;;;;;4.80;4.25;;;9.80;99.90;;;;;;5064371;28;20386;-46
2022/06/08 02:25:30;;;;;;;5.88;4.47;;;9.70;99.90;;;;;;5062733;28;20032;-47
2022/06/08 02:28:08;;;;;;;6.57;4.90;;;9.70;99.90;;;;;;5064182;28;20118;-48
2022/06/08 02:30:41;;;;;;;5.40;4.32;;;9.70;99.90;;;;;;5046258;28;20106;-51
2022/06/08 02:36:02;;;;;;;4.53;4.10;;;9.60;99.90;;;;;;5081290;28;20043;-46
2022/06/08 02:38:35;;;;;;;6.28;4.70;;;9.60;99.90;;;;;;5061220;28;20012;-49
2022/06/08 02:41:06;;;;;;;5.03;4.15;;;9.60;99.90;;;;;;5082498;28;20020;-48
2022/06/08 02:43:38;;;;;;;6.90;4.68;;;9.60;99.90;;;;;;5064455;28;20016;-51
2022/06/08 02:46:19;;;;;;;5.50;4.35;;;9.60;99.90;;;;;;5062611;28;20081;-49
2022/06/08 02:48:45;;;;;;;5.43;4.57;;;9.60;99.90;;;;;;5085171;28;20024;-47
2022/06/08 02:51:11;;;;;;;5.05;4.15;;;9.50;99.90;;;;;;5079448;28;20032;-47
2022/06/08 02:53:51;;;;;;;6.10;5.00;;;9.50;99.90;;;;;;5066627;28;20448;-47
2022/06/08 02:56:26;;;;;;;6.88;5.07;;;9.50;99.90;;;;;;5070945;28;20035;-47
2022/06/08 02:59:03;;;;;;;4.78;4.32;;;9.50;99.90;;;;;;5061158;28;20025;-48
2022/06/08 03:01:38;;;;;;;5.50;3.90;;;9.50;99.90;;;;;;5064665;28;20051;-49
2022/06/08 03:04:12;;;;;;;6.00;4.68;;;9.40;99.90;;;;;;5062794;28;20093;-49
2022/06/08 03:06:49;;;;;;;5.32;4.80;;;9.40;99.90;;;;;;5082370;28;20040;-47
2022/06/08 03:09:17;;;;;;;5.57;4.72;;;9.40;99.90;;;;;;5068016;28;20024;-51
2022/06/08 03:11:46;;;;;;;6.10;4.95;;;9.40;99.90;;;;;;5082546;28;20362;-47
2022/06/08 03:14:15;;;;;;;5.53;4.60;;;9.40;99.90;;;;;;5081754;28;20016;-48
2022/06/08 03:16:56;;;;;;;4.97;4.57;;;9.40;99.90;;;;;;5080940;28;20020;-49
2022/06/08 03:19:21;;;;;;;6.40;5.15;;;9.40;99.90;;;;;;5071396;28;20064;-49
2022/06/08 03:21:47;;;;;;;8.23;5.13;;;9.40;99.90;;;;;;5080980;28;20051;-47
2022/06/08 03:24:13;;;;;;;5.80;5.18;;;9.40;99.90;;;;;;5063794;28;20390;-45
2022/06/08 03:26:42;;;;;;;5.45;4.95;;;9.40;99.90;;;;;;5082185;28;20517;-46
2022/06/08 03:29:07;;;;;;;4.90;4.43;;;9.40;99.90;;;;;;5079398;28;20501;-45
2022/06/08 03:31:33;;;;;;;6.18;4.85;;;9.40;99.90;;;;;;5081915;28;20103;-47
2022/06/08 03:33:59;;;;;;;6.30;5.70;;;9.40;99.90;;;;;;5080491;28;20465;-47
2022/06/08 03:36:24;;;;;;;5.60;5.10;;;9.40;99.90;;;;;;5081565;28;20056;-47
2022/06/08 03:38:50;;;;;;;7.15;5.55;;;9.30;99.90;;;;;;5063409;28;20044;-46
2022/06/08 03:41:16;;;;;;;6.03;5.30;;;9.40;99.90;;;;;;5081728;28;20016;-46
2022/06/08 03:43:41;;;;;;;7.45;5.60;;;9.40;99.90;;;;;;5104635;22;20031;-49
2022/06/08 03:46:10;;;;;;;5.47;4.97;;;9.30;99.90;;;;;;5089526;28;20074;-46
2022/06/08 03:48:38;;;;;;;8.93;5.03;;;9.40;99.90;;;;;;5106139;28;20027;-51
2022/06/08 03:51:05;;;;;;;6.63;5.82;;;9.40;99.90;;;;;;5108771;28;20023;-45
2022/06/08 03:53:36;;;;;;;5.78;5.20;;;9.40;99.90;;;;;;5105005;28;20461;-45
2022/06/08 03:56:05;;;;;;;5.72;4.80;;;9.40;99.90;;;;;;5087269;28;20020;-45
2022/06/08 03:58:31;;;;;;;6.20;5.60;;;9.40;99.90;;;;;;5084371;28;20016;-45
2022/06/08 04:00:57;;;;;;;5.90;5.28;;;9.40;99.90;;;;;;5085927;28;20047;-48
2022/06/08 04:03:23;;;;;;;6.95;5.80;;;9.40;99.90;;;;;;5089746;28;20062;-50
2022/06/08 04:05:49;;;;;;;5.80;5.28;;;9.50;99.90;;;;;;5085618;28;20063;-48
2022/06/08 04:08:15;;;;;;;5.85;5.25;;;9.50;99.90;;;;;;5087354;28;20124;-47
2022/06/08 04:10:40;;;;;;;6.45;5.32;;;9.50;99.90;;;;;;5084875;28;20023;-50
2022/06/08 04:13:06;;;;;;;6.60;5.90;;;9.50;99.90;;;;;;5086742;28;20070;-50
2022/06/08 04:15:44;;;;;;;7.05;6.35;;;9.50;99.90;;;;;;5083484;28;20024;-46
2022/06/08 04:18:19;;;;;;;6.80;6.05;;;9.50;99.90;;;;;;5085210;28;20486;-45
2022/06/08 04:20:47;;;;;;;7.93;6.45;;;9.60;99.90;;;;;;5089249;28;20016;-46
2022/06/08 04:23:14;;;;;;;6.15;5.43;;;9.60;99.90;;;;;;5083163;28;20044;-46
2022/06/08 04:25:41;;;;;;;8.68;6.15;;;9.60;99.90;;;;;;5089372;28;20028;-45
2022/06/08 04:28:08;;;;;;;7.32;5.55;;;9.60;99.90;;;;;;5081590;28;20024;-49
2022/06/08 04:30:35;;;;;;;8.38;6.40;;;9.70;99.90;;;;;;5089302;28;20032;-45
2022/06/08 04:33:00;;;;;;;5.53;5.00;;;9.70;99.90;;;;;;5087596;28;20436;-45
2022/06/08 04:35:27;;;;;;;6.70;5.75;;;9.70;99.90;;;;;;5084425;28;20021;-45
2022/06/08 04:37:53;;;;;;;7.07;6.45;;;9.80;99.90;;;;;;5080993;28;20031;-45
2022/06/08 04:40:19;;;;;;;7.20;6.20;;;9.80;99.90;;;;;;5085425;28;20020;-45
2022/06/08 04:42:45;;;;;;;6.53;5.82;;;9.80;99.90;;;;;;5084377;28;20013;-45
2022/06/08 04:45:12;;;;;;;6.05;5.45;;;9.90;99.90;;;;;;5088288;28;20039;-46
2022/06/08 04:47:40;;;;;;;6.57;5.88;;;10.00;99.90;;;;;;5085240;28;20091;-46
2022/06/08 04:50:07;;;;;;;7.30;6.60;;;10.00;99.90;;;;;;5087702;28;20024;-45
2022/06/08 04:52:34;;;;;;;9.25;6.78;;;10.10;99.90;;;;;;5070810;28;20021;-46
2022/06/08 04:54:59;;;;;;;6.60;6.00;;;10.10;99.90;;;;;;5086554;28;20554;-46
2022/06/08 04:57:25;;;;;;;11.60;7.43;;;10.20;99.90;;;;;;5084357;28;20111;-46
2022/06/08 04:59:52;;;;;;;10.50;7.05;;;10.30;99.90;;;;;;5085302;28;20051;-45
2022/06/08 05:05:04;;;;;;;10.32;7.85;;;10.60;99.90;;;;;;5083168;28;20418;-46
2022/06/08 05:07:30;;;;;;;7.50;6.63;;;10.80;99.90;;;;;;5087549;28;20061;-50
2022/06/08 05:09:55;;;;;;;13.07;7.93;;;10.90;99.90;;;;;;5084286;28;20028;-45
2022/06/08 05:12:21;;;;;;;8.98;6.97;;;11.00;99.90;;;;;;5086808;28;20078;-45
2022/06/08 05:14:46;;;;;;;8.95;7.03;;;11.10;99.90;;;;;;5083356;28;20159;-47
2022/06/08 05:17:12;;;;;;;7.95;7.03;;;11.10;99.90;;;;;;5067576;28;20043;-48
2022/06/08 05:19:37;;;;;;;9.40;6.82;;;11.20;99.90;;;;;;5089826;28;20024;-48
2022/06/08 05:22:03;;;;;;;8.32;6.95;;;11.30;99.90;;;;;;5087833;28;20041;-45
2022/06/08 05:24:29;;;;;;;13.30;8.18;;;11.30;99.90;;;;;;5090910;28;20043;-45
2022/06/08 05:26:54;;;;;;;11.05;7.03;;;11.40;99.90;;;;;;5087616;28;20100;-46
2022/06/08 05:29:20;;;;;;;7.97;7.05;;;11.50;99.90;;;;;;5090003;28;20394;-46
2022/06/08 05:31:45;;;;;;;9.57;7.30;;;11.60;99.90;;;;;;5092320;28;20119;-46
2022/06/08 05:34:11;;;;;;;11.93;7.88;;;11.70;99.90;;;;;;5090516;28;20077;-45
2022/06/08 05:36:37;;;;;;;11.98;8.95;;;11.80;99.90;;;;;;5069384;28;20028;-45
2022/06/08 05:39:02;;;;;;;12.07;9.63;;;12.00;99.90;;;;;;5089769;28;20024;-45
2022/06/08 05:41:28;;;;;;;12.38;8.90;;;12.10;99.90;;;;;;5048209;28;20332;-46
2022/06/08 05:43:55;;;;;;;12.95;9.63;;;12.30;99.90;;;;;;5088296;28;20095;-46
2022/06/08 05:46:20;;;;;;;17.02;9.88;;;12.50;99.90;;;;;;5078518;28;20017;-46
2022/06/08 05:48:47;;;;;;;16.98;8.77;;;12.70;99.90;;;;;;5088732;28;20021;-50
2022/06/08 05:51:12;;;;;;;12.88;9.13;;;12.80;99.90;;;;;;5090599;28;20103;-47
2022/06/08 05:53:38;;;;;;;11.80;10.02;;;12.90;99.90;;;;;;5087021;28;20123;-50
2022/06/08 05:56:04;;;;;;;13.38;8.63;;;13.00;99.90;;;;;;5089564;28;20129;-47
2022/06/08 05:58:29;;;;;;;14.40;8.82;;;13.00;99.90;;;;;;5086345;28;20024;-51
2022/06/08 06:00:55;;;;;;;10.93;8.93;;;13.00;99.90;;;;;;5087743;28;20077;-49
2022/06/08 06:03:21;;;;;;;12.45;9.63;;;13.10;99.90;;;;;;5091790;28;20020;-51
2022/06/08 06:05:46;;;;;;;9.90;8.73;;;13.40;99.90;;;;;;5087788;28;20535;-48
2022/06/08 06:08:13;;;;;;;11.00;8.98;;;13.60;99.90;;;;;;5089954;28;20024;-48
2022/06/08 06:10:43;;;;;;;9.95;8.60;;;13.80;99.90;;;;;;5087171;28;20452;-49
2022/06/08 06:13:09;;;;;;;11.10;8.63;;;13.80;99.90;;;;;;5088880;28;20067;-50
2022/06/08 06:15:37;;;;;;;13.80;9.48;;;13.90;99.90;;;;;;5067579;28;20020;-49
2022/06/08 06:18:03;;;;;;;11.52;8.50;;;14.00;99.90;;;;;;5087438;28;20016;-51
2022/06/08 06:20:31;;;;;;;11.85;9.38;;;14.10;99.90;;;;;;5091024;28;20008;-49
2022/06/08 06:22:57;;;;;;;16.23;9.38;;;14.20;99.90;;;;;;5085985;28;20024;-48
2022/06/08 06:25:23;;;;;;;12.00;9.25;;;14.50;99.90;;;;;;5091308;28;20027;-45
2022/06/08 06:27:50;;;;;;;11.85;8.45;;;14.70;99.90;;;;;;5086574;28;20023;-51
2022/06/08 06:30:16;;;;;;;9.50;8.50;;;14.90;99.90;;;;;;5070516;28;20020;-51
2022/06/08 06:32:44;;;;;;;12.43;7.55;;;15.20;99.90;;;;;;5089132;28;20137;-49
2022/06/08 06:35:21;;;;;;;10.27;7.25;;;15.50;99.90;;;;;;5088074;28;20210;-49
2022/06/08 06:37:48;;;;;;;10.57;7.25;;;15.60;99.90;;;;;;5082681;28;20047;-51
2022/06/08 06:40:14;;;;;;;9.98;7.15;;;15.60;99.90;;;;;;5061648;28;20640;-49
2022/06/08 06:42:39;;;;;;;8.68;6.38;;;15.70;99.90;;;;;;5085521;28;20024;-47
2022/06/08 06:45:06;;;;;;;8.70;6.15;;;16.00;99.90;;;;;;5070854;28;20033;-52
2022/06/08 06:47:31;;;;;;;10.57;7.30;;;16.20;99.90;;;;;;5087107;28;20029;-49
2022/06/08 06:49:57;;;;;;;8.10;5.95;;;16.30;99.90;;;;;;5089603;28;20390;-53
2022/06/08 06:52:23;;;;;;;8.45;6.47;;;16.20;99.90;;;;;;5086017;28;20066;-52
2022/06/08 06:54:48;;;;;;;8.95;6.57;;;16.20;99.90;;;;;;5087910;28;20077;-46
2022/06/08 06:57:14;;;;;;;10.05;6.60;;;16.20;99.90;;;;;;5079343;28;20017;-49
2022/06/08 06:59:41;;;;;;;9.40;6.45;;;16.10;99.90;;;;;;5085490;28;20016;-48
2022/06/08 07:02:11;;;;;;;7.70;5.70;;;16.00;99.90;;;;;;5089770;28;20044;-49
2022/06/08 07:04:37;;;;;;;6.00;5.40;;;16.00;99.90;;;;;;5086738;28;20024;-47
2022/06/08 07:07:03;;;;;;;7.85;6.18;;;16.10;99.90;;;;;;5089373;28;20031;-48
2022/06/08 07:09:28;;;;;;;8.02;5.97;;;16.10;99.90;;;;;;5085681;28;20120;-45
2022/06/08 07:11:54;;;;;;;8.32;5.40;;;16.10;99.90;;;;;;5088009;28;20028;-47
2022/06/08 07:14:20;;;;;;;7.68;6.03;;;16.10;99.90;;;;;;5086149;28;20035;-51
2022/06/08 07:16:47;;;;;;;8.85;5.50;;;16.20;99.90;;;;;;5085649;28;20024;-48
2022/06/08 07:19:13;;;;;;;7.55;6.85;;;16.20;99.90;;;;;;5086880;28;20509;-48
2022/06/08 07:21:40;;;;;;;10.35;5.45;;;16.20;99.90;;;;;;5067726;28;20028;-49
2022/06/08 07:24:06;;;;;;;8.55;5.30;;;16.30;99.90;;;;;;5088934;28;20024;-49
2022/06/08 07:26:32;;;;;;;7.00;4.72;;;16.30;99.90;;;;;;5086777;28;20033;-47
2022/06/08 07:28:58;;;;;;;5.28;4.60;;;16.40;99.90;;;;;;5090085;28;20039;-45
2022/06/08 07:31:25;;;;;;;11.77;6.13;;;16.50;99.90;;;;;;5084382;28;20020;-48
2022/06/08 07:33:51;;;;;;;9.20;5.75;;;16.50;99.90;;;;;;5086557;28;20036;-47
2022/06/08 07:36:17;;;;;;;7.65;5.47;;;16.60;99.90;;;;;;5089141;28;20020;-46
2022/06/08 07:38:42;;;;;;;12.18;6.70;;;16.70;99.90;;;;;;5090473;28;20017;-46
2022/06/08 07:41:08;;;;;;;8.00;5.55;;;16.70;99.90;;;;;;5070462;28;20432;-48
2022/06/08 07:43:34;;;;;;;9.75;6.07;;;16.70;99.90;;;;;;5084867;28;20081;-45
2022/06/08 07:46:00;;;;;;;9.18;5.80;;;16.70;99.90;;;;;;5087246;28;20040;-47
2022/06/08 07:51:14;;;;;;;6.82;6.03;;;16.80;99.90;;;;;;5031910;28;20133;-45
2022/06/08 07:53:40;;;;;;;7.45;6.47;;;16.80;99.90;;;;;;5071641;28;20027;-46
2022/06/08 07:56:06;;;;;;;9.35;6.43;;;17.00;99.90;;;;;;5087657;28;20031;-49
2022/06/08 07:58:32;;;;;;;8.75;6.50;;;17.00;99.90;;;;;;5089978;28;20501;-47
2022/06/08 08:00:57;;;;;;;6.45;5.82;;;17.00;99.90;;;;;;5083008;28;20059;-46
2022/06/08 08:03:23;;;;;;;9.45;5.68;;;16.90;99.90;;;;;;5087256;28;20033;-47
2022/06/08 08:05:49;;;;;;;7.05;6.35;;;16.90;99.90;;;;;;5068307;28;20032;-46
2022/06/08 08:08:17;;;;;;;10.45;6.32;;;17.00;99.90;;;;;;5088151;28;20605;-48
2022/06/08 08:10:44;;;;;;;9.18;5.68;;;17.20;99.90;;;;;;5089906;28;20028;-46
2022/06/08 08:13:10;;;;;;;6.53;5.75;;;17.40;99.90;;;;;;5082155;28;20033;-47
2022/06/08 08:15:36;;;;;;;7.90;6.38;;;17.70;99.90;;;;;;5071080;28;20107;-50
2022/06/08 08:18:03;;;;;;;6.20;5.10;;;17.90;99.90;;;;;;5082411;28;20020;-49
2022/06/08 08:20:29;;;;;;;7.75;5.55;;;18.10;99.90;;;;;;5087243;28;20052;-49
2022/06/08 08:22:56;;;;;;;7.07;4.70;;;18.30;99.90;;;;;;5088704;28;20024;-46
2022/06/08 08:25:22;;;;;;;7.97;5.03;;;18.40;99.90;;;;;;5085192;28;20028;-47
2022/06/08 08:27:48;;;;;;;5.97;4.45;;;18.70;99.90;;;;;;5089317;28;20013;-47
2022/06/08 08:30:17;;;;;;;6.93;4.78;;;18.90;99.90;;;;;;5080232;28;20027;-51
2022/06/08 08:32:43;;;;;;;5.30;4.80;;;19.00;99.90;;;;;;5088273;28;20585;-48
2022/06/08 08:35:09;;;;;;;7.47;5.57;;;19.20;99.90;;;;;;5086036;28;20495;-47
2022/06/08 08:37:35;;;;;;;5.78;4.60;;;19.30;99.90;;;;;;5085801;28;20055;-51
2022/06/08 08:40:01;;;;;;;8.13;5.40;;;19.50;99.90;;;;;;5087608;28;20486;-46
2022/06/08 08:42:27;;;;;;;6.97;5.10;;;19.40;99.90;;;;;;5083225;28;20038;-48
2022/06/08 08:44:55;;;;;;;8.13;5.15;;;19.50;99.90;;;;;;5088742;28;20097;-47
2022/06/08 08:47:36;;;;;;;6.22;4.78;;;19.80;99.90;;;;;;5085843;28;20099;-49
2022/06/08 08:50:21;;;;;;;6.03;4.43;;;20.00;99.90;;;;;;5088356;28;20032;-47
2022/06/08 08:52:55;;;;;;;7.50;4.67;;;20.20;99.90;;;;;;5084759;28;20108;-46
2022/06/08 08:55:45;;;;;;;4.20;3.50;;;20.40;99.90;;;;;;5085158;28;20017;-46
2022/06/08 08:58:14;;;;;;;4.65;3.95;;;20.50;99.90;;;;;;5088520;28;20016;-46
2022/06/08 09:01:02;;;;;;;7.25;4.18;;;20.70;99.90;;;;;;5091066;28;20054;-46
2022/06/08 09:03:39;;;;;;;5.82;3.72;;;20.60;99.90;;;;;;5080700;28;20048;-48
2022/06/08 09:06:28;;;;;;;4.43;3.40;;;20.70;99.90;;;;;;5088810;28;20023;-48
2022/06/08 09:09:02;;;;;;;7.00;3.90;;;20.90;99.90;;;;;;5092471;28;20436;-47
2022/06/08 09:11:35;;;;;;;6.32;3.55;;;21.00;99.90;;;;;;5070389;28;20047;-46
2022/06/08 09:14:15;;;;;;;7.22;3.15;;;21.00;99.90;;;;;;5091163;28;20530;-47
2022/06/08 09:16:45;;;;;;;4.60;3.10;;;21.10;99.90;;;;;;5088927;28;20103;-50
2022/06/08 09:19:23;;;;;;;5.25;3.97;;;21.30;99.90;;;;;;5092710;28;20020;-47
2022/06/08 09:22:02;;;;;;;4.35;3.05;;;21.30;99.90;;;;;;5088759;28;20032;-48
2022/06/08 09:24:45;;;;;;;3.40;3.00;;;21.40;99.90;;;;;;5084940;28;20020;-46
2022/06/08 09:27:31;;;;;;;3.35;2.47;;;21.40;99.90;;;;;;5083995;28;20055;-46
2022/06/08 09:30:09;;;;;;;2.50;2.10;;;21.30;99.90;;;;;;5073003;28;20096;-45
2022/06/08 09:32:46;;;;;;;2.97;2.30;;;21.40;99.90;;;;;;5072630;28;20486;-49
2022/06/08 09:35:17;;;;;;;5.43;2.40;;;21.50;99.90;;;;;;5089458;28;20021;-46
2022/06/08 09:37:43;;;;;;;4.47;2.80;;;21.60;99.90;;;;;;5069202;28;20027;-46
2022/06/08 09:40:56;;;;;;;4.97;2.45;;;21.60;99.90;;;;;;5089011;28;20146;-49
2022/06/08 09:43:31;;;;;;;3.25;2.53;;;21.70;99.90;;;;;;5080394;28;20083;-47
2022/06/08 09:46:19;;;;;;;3.53;2.55;;;21.80;99.90;;;;;;5130948;22;20146;-52
2022/06/08 09:52:09;;;;;;;3.55;2.50;;;21.90;99.60;;;;;;5087617;28;20073;-52
2022/06/08 09:54:44;;;;;;;3.70;2.90;;;21.90;99.90;;;;;;5086030;28;20028;-53
2022/06/08 09:57:29;;;;;;;2.60;2.35;;;22.00;99.50;;;;;;5070569;28;20550;-47
2022/06/08 10:00:04;;;;;;;3.70;3.15;;;22.00;99.70;;;;;;5072667;28;20036;-52
2022/06/08 10:02:47;;;;;;;3.20;2.83;;;22.00;97.40;;;;;;5079931;28;20518;-48
2022/06/08 10:05:39;;;;;;;3.97;3.08;;;21.80;97.00;;;;;;5072115;28;20028;-51
2022/06/08 10:08:31;;;;;;;5.32;4.10;;;21.80;98.30;;;;;;5023867;28;20394;-50
2022/06/08 10:11:36;;;;;;;5.75;4.22;;;21.80;99.90;;;;;;5070666;28;20386;-51
2022/06/08 10:14:24;;;;;;;5.72;5.10;;;21.70;99.90;;;;;;5069060;28;20031;-49
2022/06/08 10:16:59;;;;;;;10.90;6.35;;;21.60;99.90;;;;;;5077736;28;20052;-48
2022/06/08 10:19:46;;;;;;;6.55;5.15;;;21.30;99.90;;;;;;5061536;28;20024;-48
2022/06/08 10:22:13;;;;;;;5.40;4.47;;;21.20;99.90;;;;;;5072358;28;20017;-50
2022/06/08 10:24:53;;;;;;;6.47;5.88;;;21.30;99.90;;;;;;5077408;28;20032;-48
2022/06/08 10:27:30;;;;;;;6.68;5.05;;;21.50;99.90;;;;;;5067750;28;20537;-49
2022/06/08 10:30:07;;;;;;;5.90;5.22;;;21.60;99.90;;;;;;5066928;28;20016;-49
2022/06/08 10:32:38;;;;;;;7.78;6.43;;;21.70;99.90;;;;;;5079548;28;20085;-49
2022/06/08 10:35:22;;;;;;;6.68;6.07;;;21.70;99.90;;;;;;5071550;28;20032;-50
2022/06/08 10:37:50;;;;;;;7.03;5.70;;;21.70;99.90;;;;;;5072370;28;20027;-48
2022/06/08 10:40:20;;;;;;;8.55;5.90;;;21.60;99.90;;;;;;5050513;28;20025;-48
2022/06/08 10:42:47;;;;;;;9.73;7.32;;;21.60;99.90;;;;;;5076421;28;20024;-49
2022/06/08 10:45:24;;;;;;;7.32;6.63;;;21.70;99.90;;;;;;5079092;28;20426;-49
2022/06/08 10:48:11;;;;;;;10.27;7.25;;;21.70;99.90;;;;;;5075070;28;20027;-48
2022/06/08 10:50:42;;;;;;;8.95;7.25;;;21.90;99.90;;;;;;5077753;28;20028;-50
2022/06/08 10:56:23;;;;;;;8.50;6.47;;;22.00;99.90;;;;;;5076138;28;20112;-51
2022/06/08 10:58:57;;;;;;;6.88;4.38;;;21.90;99.90;;;;;;5068943;28;20021;-49
2022/06/08 11:01:49;;;;;;;9.32;6.95;;;22.00;99.90;;;;;;5079410;28;20016;-49
2022/06/08 11:04:30;;;;;;;7.22;5.95;;;21.90;99.90;;;;;;5064048;28;20688;-54
2022/06/08 11:07:11;;;;;;;5.78;5.18;;;21.80;99.90;;;;;;5079659;28;20489;-53
2022/06/08 11:09:39;;;;;;;10.65;6.65;;;21.80;99.90;;;;;;5070246;28;20017;-50
2022/06/08 11:12:11;;;;;;;6.07;5.30;;;21.80;99.90;;;;;;5076159;28;20043;-51
2022/06/08 11:14:42;;;;;;;5.35;4.45;;;21.70;99.90;;;;;;5067343;28;20055;-50
2022/06/08 11:17:15;;;;;;;5.82;5.25;;;21.70;99.90;;;;;;5073764;28;20122;-51
2022/06/08 11:19:42;;;;;;;6.50;5.80;;;21.90;99.90;;;;;;5071391;28;20021;-52
2022/06/08 11:22:21;;;;;;;6.20;5.70;;;22.00;99.90;;;;;;5072095;28;20020;-48
2022/06/08 11:24:51;;;;;;;7.07;5.15;;;22.10;99.90;;;;;;5077785;28;20099;-50
2022/06/08 11:27:20;;;;;;;5.78;5.10;;;22.10;99.90;;;;;;5066832;28;20020;-52
2022/06/08 11:29:52;;;;;;;6.78;5.43;;;22.10;99.90;;;;;;5067288;28;20029;-54
2022/06/08 11:32:34;;;;;;;5.60;4.95;;;22.10;99.90;;;;;;5056237;28;20028;-50
2022/06/08 11:35:21;;;;;;;6.25;5.25;;;22.10;99.90;;;;;;5071722;28;20031;-51
2022/06/08 11:37:52;;;;;;;7.72;4.90;;;22.20;99.90;;;;;;5070796;28;20014;-49
2022/06/08 11:40:31;;;;;;;7.43;6.78;;;22.30;99.90;;;;;;5059997;28;20028;-52
2022/06/08 11:43:32;;;;;;;7.40;5.65;;;22.30;99.90;;;;;;5052732;28;20028;-50
2022/06/08 11:45:58;;;;;;;6.50;5.90;;;22.30;99.90;;;;;;5080300;28;20036;-50
2022/06/08 11:48:27;;;;;;;5.55;5.15;;;22.10;99.90;;;;;;5053296;28;20052;-49
2022/06/08 11:50:56;;;;;;;6.95;5.70;;;22.00;99.90;;;;;;5077938;28;20515;-50
2022/06/08 11:53:39;;;;;;;8.00;5.70;;;22.00;99.90;;;;;;5069237;28;20029;-48
2022/06/08 11:56:24;;;;;;;8.48;4.97;;;22.00;99.90;;;;;;5075127;28;20020;-50
2022/06/08 11:59:01;;;;;;;7.05;6.45;;;22.10;99.90;;;;;;5067748;28;20028;-49
2022/06/08 12:01:38;;;;;;;6.05;5.22;;;22.00;99.90;;;;;;5079410;28;20073;-49
2022/06/08 12:04:21;;;;;;;6.10;5.35;;;21.90;99.90;;;;;;5071478;28;20038;-54
2022/06/08 12:06:48;;;;;;;4.72;4.25;;;21.80;99.90;;;;;;5072257;28;20532;-49
2022/06/08 12:09:34;;;;;;;5.10;4.60;;;21.80;99.90;;;;;;5067760;28;20029;-50
2022/06/08 12:12:23;;;;;;;5.13;4.63;;;21.80;99.90;;;;;;5072221;28;20039;-50
2022/06/08 12:14:49;;;;;;;6.63;5.53;;;21.90;99.90;;;;;;5067799;28;20028;-50
2022/06/08 12:17:15;;;;;;;6.13;5.15;;;21.90;99.90;;;;;;5072630;28;20079;-50
2022/06/08 12:19:48;;;;;;;6.15;5.55;;;21.90;99.90;;;;;;5078524;28;20037;-51
2022/06/08 12:22:38;;;;;;;5.78;4.95;;;21.90;99.90;;;;;;5070295;28;20466;-51
2022/06/08 12:25:09;;;;;;;5.47;4.97;;;22.00;99.90;;;;;;5076976;28;20097;-47
2022/06/08 12:28:00;;;;;;;4.68;4.18;;;22.00;99.90;;;;;;5068809;28;20032;-48
2022/06/08 12:30:35;;;;;;;5.55;4.40;;;22.10;99.90;;;;;;5069328;28;20025;-50
2022/06/08 12:33:18;;;;;;;4.18;3.80;;;22.30;99.90;;;;;;5081348;28;20092;-51
2022/06/08 12:36:17;;;;;;;4.80;4.25;;;22.30;99.90;;;;;;5073798;28;20020;-48
2022/06/08 12:39:00;;;;;;;5.00;4.22;;;22.30;99.90;;;;;;5075851;28;20013;-49
2022/06/08 12:41:43;;;;;;;4.40;4.10;;;22.50;99.90;;;;;;5069835;28;20020;-49
2022/06/08 12:44:17;;;;;;;5.45;4.57;;;22.60;99.90;;;;;;5078800;28;20405;-51
2022/06/08 12:47:09;;;;;;;4.93;4.35;;;22.70;99.90;;;;;;5079908;28;20056;-51
2022/06/08 12:49:44;;;;;;;4.90;4.20;;;22.70;99.60;;;;;;5082172;28;20032;-49
2022/06/08 12:52:32;;;;;;;6.05;5.53;;;22.70;99.90;;;;;;5071957;28;20016;-54
2022/06/08 12:54:59;;;;;;;5.63;5.13;;;22.50;99.90;;;;;;5077352;28;20428;-49
2022/06/08 12:57:28;;;;;;;5.32;4.82;;;22.50;99.90;;;;;;5068585;28;20021;-49
2022/06/08 12:59:56;;;;;;;6.55;5.85;;;22.60;99.90;;;;;;5049438;28;20391;-48
2022/06/08 13:02:24;;;;;;;4.68;4.22;;;22.40;99.50;;;;;;5080704;28;20021;-49
2022/06/08 13:04:50;;;;;;;5.65;5.00;;;22.50;99.90;;;;;;5076214;28;20032;-50
2022/06/08 13:07:21;;;;;;;5.97;5.38;;;22.50;99.90;;;;;;5079140;28;20024;-49
2022/06/08 13:09:48;;;;;;;4.53;4.13;;;22.40;99.90;;;;;;5073485;28;20505;-49
2022/06/08 13:12:23;;;;;;;5.82;5.28;;;22.50;99.90;;;;;;5076969;28;20370;-54
2022/06/08 13:14:49;;;;;;;5.03;4.53;;;22.60;99.90;;;;;;5070948;28;20430;-52
2022/06/08 13:17:14;;;;;;;5.57;4.90;;;22.70;99.90;;;;;;5076230;28;20021;-51
2022/06/08 13:19:40;;;;;;;4.38;4.03;;;22.80;99.90;;;;;;5081726;28;20382;-51
2022/06/08 13:22:06;;;;;;;4.60;4.20;;;22.80;99.90;;;;;;5074701;28;20393;-51
2022/06/08 13:24:32;;;;;;;4.22;3.83;;;22.80;99.90;;;;;;5078754;28;20028;-53
2022/06/08 13:26:58;;;;;;;5.25;4.82;;;22.80;99.90;;;;;;5073361;28;20486;-51